Terminal Aerodrome Forecast
Issued by NWS

Home | Current Version | Previous Version | Text Only | Print | Product List | Glossary Off
Versions: 1 2 3 4 5 6 7 8 9 10 11 12 13 14 15 16 17 18 19 20 21 22 23 24 25 26 27 28 29 30 31

000
FTUS43 KABR 021725 AAC
TAFMBG
TAF AMD
KMBG 021725Z 0217/0312 31009KT P6SM SCT040 BKN200
     FM022000 03004KT P6SM VCTS BKN045CB
     FM030200 07004KT P6SM SCT050 BKN100
     FM030900 07002KT 4SM BR BKN025=

USA.gov is the U.S. government's official web portal to all federal, state and local government web resources and services.